Free Soil, Michigan
Current Conditions -  °F | °C
As of 2:55 AM on Friday 19 Dec 2014 (Local Time) from KMBL Reporting Station
Clear Clear  
Wind Chill:   Ceiling: Unl
Heat Index: 12°   Visibility: 10mi
Dew Point:   Wind: 5mph
Humidity: 85%   Direction: 100°E
Pressure: 30.24"   Gusts: NA
Location:  44.11°N, 86.22°W
Report Text: KMBL 190755Z AUTO 10004KT 10SM CLR M11/M13 A3024 RMK AO1
Loading
Personal Weather Stations






























Interactive Weather Map New forecast layout! Learn more

10-Day Weather Forecast

Advertisements
Track Severe Weather on mobile